Time;durP1;ratioP1;P1;durP2;ratioP2;P2;SDS_P1;SDS_P2;PMS_P1;PMS_P2;Temp;Humidity;BMP_temperature;BMP_pressure;BME280_temperature;BME280_humidity;BME280_pressure;Samples;Min_cycle;Max_cycle;Signal;HPM_P1;HPM_P2
2022/11/27 00:02:10;;;;;;;11.70;4.90;;;2.80;99.90;;;;;;5074147;28;20180;-80
2022/11/27 00:04:36;;;;;;;6.60;4.83;;;2.80;99.90;;;;;;5073820;28;20693;-80
2022/11/27 00:07:02;;;;;;;8.23;5.37;;;2.80;99.90;;;;;;5072976;28;20268;-80
2022/11/27 00:09:27;;;;;;;8.87;4.30;;;2.80;99.90;;;;;;5074152;28;20180;-80
2022/11/27 00:11:53;;;;;;;8.57;4.70;;;2.70;99.90;;;;;;5072626;28;20204;-80
2022/11/27 00:14:18;;;;;;;7.93;5.20;;;2.50;99.90;;;;;;5072798;28;20173;-80
2022/11/27 00:16:44;;;;;;;6.50;4.77;;;2.30;99.90;;;;;;5072396;28;20176;-80
2022/11/27 00:19:10;;;;;;;8.60;5.60;;;2.30;99.90;;;;;;5074135;28;20208;-80
2022/11/27 00:21:37;;;;;;;7.87;4.83;;;2.30;99.90;;;;;;5074057;28;20202;-80
2022/11/27 00:24:05;;;;;;;7.57;4.63;;;2.30;99.90;;;;;;5072355;28;20176;-80
2022/11/27 00:26:31;;;;;;;10.43;4.97;;;2.30;99.90;;;;;;5074106;28;20180;-80
2022/11/27 00:28:57;;;;;;;7.17;4.77;;;2.30;99.90;;;;;;5073778;28;20205;-80
2022/11/27 00:31:28;;;;;;;8.33;5.33;;;2.30;99.90;;;;;;5072293;28;20257;-80
2022/11/27 00:33:55;;;;;;;8.30;5.43;;;2.30;99.90;;;;;;5073647;28;20187;-80
2022/11/27 00:36:21;;;;;;;9.00;5.37;;;2.20;99.90;;;;;;5080555;22;20225;-81
2022/11/27 00:38:46;;;;;;;8.23;5.83;;;2.20;99.90;;;;;;5053262;28;20233;-81
2022/11/27 00:41:20;;;;;;;9.33;5.43;;;2.20;99.90;;;;;;5053447;28;20173;-81
2022/11/27 00:43:46;;;;;;;11.00;6.07;;;2.20;99.90;;;;;;5051686;28;20181;-81
2022/11/27 00:46:13;;;;;;;8.97;5.40;;;2.20;99.90;;;;;;5053445;28;20201;-81
2022/11/27 00:48:39;;;;;;;8.20;5.50;;;2.10;99.90;;;;;;5052969;28;20171;-82
2022/11/27 00:51:07;;;;;;;10.07;6.07;;;2.10;99.90;;;;;;5051827;28;20235;-82
2022/11/27 00:53:33;;;;;;;10.57;7.17;;;2.10;99.90;;;;;;5052701;28;20201;-81
2022/11/27 00:55:59;;;;;;;9.37;6.40;;;2.10;99.90;;;;;;5052938;28;20192;-81
2022/11/27 00:58:26;;;;;;;11.23;6.43;;;2.10;99.90;;;;;;5051201;28;20176;-81
2022/11/27 01:00:55;;;;;;;9.30;5.67;;;2.00;99.90;;;;;;5052882;28;20180;-81
2022/11/27 01:03:22;;;;;;;12.70;6.30;;;2.00;99.90;;;;;;5052640;28;20182;-81
2022/11/27 01:05:48;;;;;;;9.93;6.10;;;2.00;99.90;;;;;;5052515;28;20196;-82
2022/11/27 01:08:13;;;;;;;11.27;6.67;;;2.00;99.90;;;;;;5051740;28;20230;-81
2022/11/27 01:10:39;;;;;;;10.83;6.53;;;1.80;99.90;;;;;;5052551;28;20197;-81
2022/11/27 01:13:04;;;;;;;11.63;6.73;;;1.70;99.90;;;;;;5051165;28;20210;-81
2022/11/27 01:15:30;;;;;;;10.30;6.07;;;1.60;99.90;;;;;;5051531;28;20607;-81
2022/11/27 01:17:55;;;;;;;10.63;6.80;;;1.70;99.90;;;;;;5050934;28;20175;-81
2022/11/27 01:20:21;;;;;;;11.93;6.43;;;1.70;99.90;;;;;;5052495;28;20226;-81
2022/11/27 01:22:47;;;;;;;9.10;5.97;;;1.80;99.90;;;;;;5050937;28;20176;-81
2022/11/27 01:25:12;;;;;;;12.20;5.03;;;1.80;99.90;;;;;;5051448;28;20194;-82
2022/11/27 01:27:38;;;;;;;8.90;5.00;;;1.80;99.90;;;;;;5051406;28;20173;-81
2022/11/27 01:30:04;;;;;;;9.27;5.20;;;1.80;99.90;;;;;;5052599;28;20326;-81
2022/11/27 01:32:29;;;;;;;7.77;5.17;;;1.80;99.90;;;;;;5050954;28;20195;-81
2022/11/27 01:34:55;;;;;;;6.90;5.00;;;1.90;99.90;;;;;;5055123;28;20274;-81
2022/11/27 01:37:20;;;;;;;7.90;5.00;;;1.90;99.90;;;;;;5072476;28;20241;-81
2022/11/27 01:39:46;;;;;;;9.70;5.47;;;1.90;99.90;;;;;;5071003;28;20177;-82
2022/11/27 01:42:12;;;;;;;9.50;5.30;;;1.90;99.90;;;;;;5072437;28;20183;-81
2022/11/27 01:44:37;;;;;;;8.10;5.60;;;1.90;99.90;;;;;;5071100;28;20177;-81
2022/11/27 01:47:15;;;;;;;9.07;5.30;;;1.90;99.90;;;;;;5072284;28;20595;-81
2022/11/27 01:49:46;;;;;;;10.97;5.57;;;1.80;99.90;;;;;;5072366;28;20172;-81
2022/11/27 01:52:26;;;;;;;7.53;5.13;;;1.90;99.90;;;;;;5071011;28;20209;-81
2022/11/27 01:55:05;;;;;;;7.90;5.53;;;1.80;99.90;;;;;;5071249;28;20212;-81
2022/11/27 01:57:38;;;;;;;8.67;5.93;;;1.80;99.90;;;;;;5072186;28;20175;-81
2022/11/27 02:00:05;;;;;;;7.97;5.57;;;1.80;99.90;;;;;;5071133;28;20303;-81
2022/11/27 02:02:31;;;;;;;8.77;5.30;;;1.70;99.90;;;;;;5071971;28;20177;-81
2022/11/27 02:04:56;;;;;;;8.50;5.23;;;1.70;99.90;;;;;;5072186;28;20200;-81
2022/11/27 02:07:22;;;;;;;8.47;5.03;;;1.60;99.90;;;;;;5070937;28;20200;-81
2022/11/27 02:09:48;;;;;;;9.03;5.23;;;1.50;99.90;;;;;;5074488;28;20595;-81
2022/11/27 02:12:35;;;;;;;10.40;5.77;;;1.50;99.90;;;;;;5074466;28;20227;-80
2022/11/27 02:15:15;;;;;;;10.10;5.87;;;1.60;99.90;;;;;;5075902;28;20217;-81
2022/11/27 02:17:53;;;;;;;16.00;6.00;;;1.50;99.90;;;;;;5074618;28;20258;-81
2022/11/27 02:20:56;;;;;;;8.73;5.40;;;1.50;99.90;;;;;;5075955;28;20176;-81
2022/11/27 02:23:48;;;;;;;8.53;5.30;;;1.30;99.90;;;;;;5074770;28;20171;-82
2022/11/27 02:26:40;;;;;;;6.40;5.00;;;1.20;99.90;;;;;;5074550;28;20196;-82
2022/11/27 02:29:11;;;;;;;7.47;5.00;;;1.20;99.90;;;;;;5076150;28;20228;-81
2022/11/27 02:32:03;;;;;;;7.10;5.10;;;1.20;99.90;;;;;;5074439;28;20199;-82
2022/11/27 02:34:43;;;;;;;6.93;4.93;;;1.30;99.90;;;;;;5074171;28;20196;-82
2022/11/27 02:37:21;;;;;;;6.30;4.87;;;1.30;99.90;;;;;;5075290;28;20604;-81
2022/11/27 02:40:05;;;;;;;7.00;4.53;;;1.30;99.90;;;;;;5075661;28;20175;-82
2022/11/27 02:42:47;;;;;;;7.73;4.53;;;1.40;99.90;;;;;;5075354;28;20675;-82
2022/11/27 02:45:21;;;;;;;9.10;5.07;;;1.40;99.90;;;;;;5074109;28;20198;-82
2022/11/27 02:47:49;;;;;;;5.90;4.60;;;1.50;99.90;;;;;;5075452;28;20195;-82
2022/11/27 02:50:20;;;;;;;6.70;4.97;;;1.50;99.90;;;;;;5075408;28;20178;-83
2022/11/27 02:52:47;;;;;;;6.67;5.00;;;1.50;99.90;;;;;;5074120;28;20213;-82
2022/11/27 02:55:16;;;;;;;7.63;4.80;;;1.50;99.90;;;;;;5074016;28;20230;-81
2022/11/27 02:57:43;;;;;;;6.53;4.80;;;1.60;99.90;;;;;;5074010;28;20175;-82
2022/11/27 03:00:10;;;;;;;7.03;4.63;;;1.60;99.90;;;;;;5075734;28;20177;-82
2022/11/27 03:02:42;;;;;;;8.10;4.87;;;1.60;99.90;;;;;;5074360;28;20171;-82
2022/11/27 03:05:10;;;;;;;7.27;4.87;;;1.50;99.90;;;;;;5075102;28;20692;-82
2022/11/27 03:08:04;;;;;;;8.57;5.10;;;1.50;99.90;;;;;;5075322;28;20320;-82
2022/11/27 03:10:42;;;;;;;7.57;4.50;;;1.40;99.90;;;;;;5074134;28;20170;-82
2022/11/27 03:13:08;;;;;;;7.20;4.27;;;1.40;99.90;;;;;;5074909;28;20195;-82
2022/11/27 03:15:48;;;;;;;6.87;4.83;;;1.40;99.90;;;;;;5073764;28;20243;-82
2022/11/27 03:18:48;;;;;;;7.83;4.67;;;1.30;99.90;;;;;;5075398;28;20243;-82
2022/11/27 03:21:26;;;;;;;7.43;4.10;;;1.30;99.90;;;;;;5073275;28;20178;-82
2022/11/27 03:23:52;;;;;;;8.30;4.20;;;1.30;99.90;;;;;;5074945;28;20177;-81
2022/11/27 03:26:17;;;;;;;5.83;4.17;;;1.30;99.90;;;;;;5073761;28;20196;-82
2022/11/27 03:28:44;;;;;;;6.27;4.40;;;1.00;99.90;;;;;;5073757;28;20283;-81
2022/11/27 03:31:12;;;;;;;7.87;4.63;;;1.00;99.90;;;;;;5073533;28;20224;-81
2022/11/27 03:33:38;;;;;;;6.80;4.33;;;1.10;99.90;;;;;;5073515;28;20175;-81
2022/11/27 03:36:15;;;;;;;5.77;4.87;;;1.10;99.90;;;;;;5074821;28;20212;-82
2022/11/27 03:38:42;;;;;;;7.57;4.40;;;1.10;99.90;;;;;;5073392;28;20175;-81
2022/11/27 03:41:18;;;;;;;5.83;4.17;;;1.20;99.90;;;;;;5074792;28;20166;-81
2022/11/27 03:44:11;;;;;;;6.93;4.17;;;1.20;99.90;;;;;;5074623;28;20167;-81
2022/11/27 03:46:46;;;;;;;6.93;4.17;;;1.20;99.90;;;;;;5074869;28;20193;-82
2022/11/27 03:49:32;;;;;;;5.33;4.07;;;1.30;99.90;;;;;;5073743;28;20184;-81
2022/11/27 03:52:23;;;;;;;7.07;4.07;;;1.20;99.90;;;;;;5073270;28;20204;-81
2022/11/27 03:55:18;;;;;;;6.07;4.00;;;1.10;99.90;;;;;;5074582;28;20206;-82
2022/11/27 03:58:03;;;;;;;7.07;4.37;;;1.10;99.90;;;;;;5073402;28;20182;-81
2022/11/27 04:00:33;;;;;;;8.03;4.10;;;1.20;99.90;;;;;;5074401;28;20185;-81
2022/11/27 04:03:00;;;;;;;5.90;4.37;;;1.20;99.90;;;;;;5073117;28;20179;-81
2022/11/27 04:05:26;;;;;;;7.63;4.30;;;1.20;99.90;;;;;;5074549;28;20198;-81
2022/11/27 04:07:52;;;;;;;7.10;4.20;;;1.00;99.90;;;;;;5074580;28;20190;-81
2022/11/27 04:10:17;;;;;;;9.87;4.13;;;1.00;99.90;;;;;;5073271;28;20206;-81
2022/11/27 04:12:43;;;;;;;6.77;4.00;;;0.90;99.90;;;;;;5072817;28;20673;-81
2022/11/27 04:15:09;;;;;;;6.97;4.43;;;0.90;99.90;;;;;;5074416;28;20330;-81
2022/11/27 04:17:35;;;;;;;6.10;3.83;;;0.90;99.90;;;;;;5073043;28;20174;-81
2022/11/27 04:20:01;;;;;;;5.13;3.97;;;1.00;99.90;;;;;;5073070;28;20183;-81
2022/11/27 04:22:26;;;;;;;6.80;3.50;;;1.00;99.90;;;;;;5072971;28;20270;-81
2022/11/27 04:24:52;;;;;;;6.67;4.57;;;1.00;99.90;;;;;;5072584;28;20277;-81
2022/11/27 04:27:17;;;;;;;7.00;4.57;;;1.10;99.90;;;;;;5073250;28;20177;-81
2022/11/27 04:29:43;;;;;;;5.03;3.90;;;1.00;99.90;;;;;;5074081;28;20205;-81
2022/11/27 04:32:09;;;;;;;8.00;4.53;;;0.90;99.90;;;;;;5071789;28;20202;-80
2022/11/27 04:34:34;;;;;;;5.73;3.97;;;0.90;99.90;;;;;;5073318;28;20174;-81
2022/11/27 04:37:00;;;;;;;5.63;4.10;;;0.90;99.90;;;;;;5072443;28;20267;-81
2022/11/27 04:39:26;;;;;;;6.50;4.10;;;0.90;99.90;;;;;;5072210;28;20178;-81
2022/11/27 04:41:51;;;;;;;6.83;3.97;;;1.00;99.90;;;;;;5072510;28;20268;-81
2022/11/27 04:44:17;;;;;;;6.67;4.20;;;1.10;99.90;;;;;;5072160;28;20268;-81
2022/11/27 04:46:43;;;;;;;6.93;4.20;;;1.10;99.90;;;;;;5073653;28;20446;-81
2022/11/27 04:49:09;;;;;;;5.80;3.83;;;1.20;99.90;;;;;;5073397;28;20185;-81
2022/11/27 04:51:35;;;;;;;5.43;3.80;;;1.30;99.90;;;;;;5072099;28;20292;-82
2022/11/27 04:54:01;;;;;;;6.10;4.07;;;1.30;99.90;;;;;;5073155;28;20261;-81
2022/11/27 04:56:26;;;;;;;4.63;3.80;;;1.20;99.90;;;;;;5073662;28;20735;-81
2022/11/27 04:58:52;;;;;;;6.90;4.40;;;1.10;99.90;;;;;;5072019;28;20229;-81
2022/11/27 05:01:17;;;;;;;8.83;4.47;;;1.10;99.90;;;;;;5073197;28;20523;-81
2022/11/27 05:03:45;;;;;;;6.03;4.27;;;1.10;99.90;;;;;;5072098;28;20424;-81
2022/11/27 05:06:10;;;;;;;6.00;3.87;;;1.20;99.90;;;;;;5071835;28;20732;-81
2022/11/27 05:08:36;;;;;;;6.80;4.17;;;1.10;99.90;;;;;;5073120;28;20183;-81
2022/11/27 05:11:04;;;;;;;8.17;4.10;;;1.20;99.90;;;;;;5072124;28;20182;-81
2022/11/27 05:13:30;;;;;;;5.60;4.00;;;1.10;99.90;;;;;;5071723;28;20190;-82
2022/11/27 05:15:56;;;;;;;7.70;4.30;;;1.10;99.90;;;;;;5071913;28;20280;-81
2022/11/27 05:18:22;;;;;;;5.87;4.00;;;1.00;99.90;;;;;;5072736;28;20529;-81
2022/11/27 05:20:55;;;;;;;6.60;3.97;;;0.90;99.90;;;;;;5071851;28;20235;-81
2022/11/27 05:23:21;;;;;;;8.00;4.43;;;0.90;99.90;;;;;;5073172;28;20253;-82
2022/11/27 05:25:46;;;;;;;6.13;4.23;;;0.90;99.90;;;;;;5071677;28;20293;-82
2022/11/27 05:28:12;;;;;;;8.60;4.13;;;0.90;99.90;;;;;;5073046;28;20175;-81
2022/11/27 05:30:37;;;;;;;6.20;4.00;;;0.70;99.90;;;;;;5071705;28;20230;-81
2022/11/27 05:33:03;;;;;;;7.27;4.43;;;0.60;99.90;;;;;;5071588;28;20198;-81
2022/11/27 05:35:28;;;;;;;8.23;4.60;;;0.60;99.90;;;;;;5071707;28;20274;-81
2022/11/27 05:37:54;;;;;;;6.70;4.57;;;0.50;99.90;;;;;;5071975;28;20271;-81
2022/11/27 05:40:20;;;;;;;6.40;4.67;;;0.60;99.90;;;;;;5073097;28;20192;-81
2022/11/27 05:42:45;;;;;;;8.30;4.90;;;0.50;99.90;;;;;;5071541;28;20207;-82
2022/11/27 05:45:11;;;;;;;6.43;4.30;;;0.60;99.90;;;;;;5071581;28;20228;-81
2022/11/27 05:47:36;;;;;;;8.43;4.40;;;0.60;99.90;;;;;;5071967;28;20202;-81
2022/11/27 05:50:02;;;;;;;7.07;4.33;;;0.60;99.90;;;;;;5073878;28;20195;-82
2022/11/27 05:52:28;;;;;;;7.73;4.60;;;0.60;99.90;;;;;;5071627;28;20204;-81
2022/11/27 05:54:55;;;;;;;6.10;4.70;;;0.50;99.90;;;;;;5072155;28;20624;-81
2022/11/27 05:57:21;;;;;;;8.50;4.33;;;0.40;99.90;;;;;;5072114;28;20173;-81
2022/11/27 05:59:46;;;;;;;6.47;4.57;;;0.30;99.90;;;;;;5071851;28;20177;-81
2022/11/27 06:02:12;;;;;;;9.77;4.73;;;0.20;99.90;;;;;;5071588;28;20169;-82
2022/11/27 06:04:38;;;;;;;7.53;4.73;;;0.20;99.90;;;;;;5073082;28;20212;-81
2022/11/27 06:07:03;;;;;;;8.70;4.90;;;0.40;99.90;;;;;;5073074;28;20173;-81
2022/11/27 06:09:29;;;;;;;6.20;4.60;;;0.40;99.90;;;;;;5070512;28;20173;-84
2022/11/27 06:11:54;;;;;;;7.57;4.10;;;0.40;99.90;;;;;;5071618;28;20196;-84
2022/11/27 06:14:20;;;;;;;8.00;4.63;;;0.40;99.90;;;;;;5070256;28;20165;-84
2022/11/27 06:16:46;;;;;;;8.50;4.83;;;0.50;99.90;;;;;;5071217;28;20185;-84
2022/11/27 06:19:11;;;;;;;11.43;5.60;;;0.40;99.90;;;;;;5072332;28;20200;-86
2022/11/27 06:21:37;;;;;;;13.13;5.80;;;0.50;99.90;;;;;;5070650;28;20268;-86
2022/11/27 06:24:03;;;;;;;11.00;5.30;;;0.60;99.90;;;;;;5070447;28;20203;-86
2022/11/27 06:26:31;;;;;;;11.70;5.70;;;0.50;99.90;;;;;;5070653;28;20224;-86
2022/11/27 06:28:58;;;;;;;13.73;5.53;;;0.50;99.90;;;;;;5070498;28;20692;-85
2022/11/27 06:31:26;;;;;;;17.43;6.50;;;0.50;99.90;;;;;;5072541;28;20181;-86
2022/11/27 06:33:54;;;;;;;15.33;6.93;;;0.50;99.90;;;;;;5070205;28;20165;-83
2022/11/27 06:36:23;;;;;;;21.50;6.77;;;0.50;99.90;;;;;;5140907;22;20224;-81
2022/11/27 06:38:49;;;;;;;24.70;7.37;;;0.50;99.90;;;;;;5092267;28;20195;-80
2022/11/27 06:41:18;;;;;;;16.63;7.50;;;0.40;99.90;;;;;;5092919;28;20177;-81
2022/11/27 06:43:43;;;;;;;16.53;6.30;;;0.50;99.90;;;;;;5092632;28;20253;-80
2022/11/27 06:46:16;;;;;;;20.17;6.27;;;0.40;99.90;;;;;;5092752;28;20188;-79
2022/11/27 06:48:43;;;;;;;15.10;6.30;;;0.40;99.90;;;;;;5092194;28;20173;-80
2022/11/27 06:51:11;;;;;;;14.27;6.50;;;0.40;99.90;;;;;;5092272;28;20179;-80
2022/11/27 06:53:37;;;;;;;13.20;5.93;;;0.20;99.90;;;;;;5090839;28;20187;-80
2022/11/27 06:56:14;;;;;;;12.37;5.60;;;0.10;99.90;;;;;;5094087;28;20290;-81
2022/11/27 06:58:40;;;;;;;14.77;6.10;;;0.20;99.90;;;;;;5096017;28;20183;-81
2022/11/27 07:01:09;;;;;;;11.03;5.87;;;0.20;99.90;;;;;;5094387;28;20180;-79
2022/11/27 07:03:35;;;;;;;13.93;6.00;;;0.20;99.90;;;;;;5095989;28;20187;-81
2022/11/27 07:06:03;;;;;;;12.17;5.97;;;0.20;99.90;;;;;;5097278;28;20225;-83
2022/11/27 07:08:29;;;;;;;9.57;5.83;;;0.20;99.90;;;;;;5095218;28;20211;-82
2022/11/27 07:11:04;;;;;;;9.63;5.90;;;0.30;99.90;;;;;;5094103;28;20212;-82
2022/11/27 07:13:30;;;;;;;8.27;5.80;;;0.20;99.90;;;;;;5095121;28;20632;-80
2022/11/27 07:16:00;;;;;;;8.60;5.57;;;0.20;99.90;;;;;;5094164;28;20230;-79
2022/11/27 07:18:27;;;;;;;9.93;5.80;;;0.20;99.90;;;;;;5096378;28;20172;-80
2022/11/27 07:20:53;;;;;;;9.33;5.67;;;0.20;99.90;;;;;;5094903;28;20200;-80
2022/11/27 07:23:18;;;;;;;11.60;6.40;;;0.20;99.90;;;;;;5094681;28;20222;-79
2022/11/27 07:25:44;;;;;;;10.63;5.77;;;1.20;99.90;;;;;;5093989;28;20674;-80
2022/11/27 07:28:10;;;;;;;7.83;5.27;;;2.20;99.90;;;;;;5093700;28;20174;-82
2022/11/27 07:30:35;;;;;;;8.70;5.37;;;2.80;99.90;;;;;;5094247;28;20228;-80
2022/11/27 07:33:01;;;;;;;7.00;4.90;;;3.00;99.90;;;;;;5093010;28;20293;-80
2022/11/27 07:35:26;;;;;;;6.87;4.83;;;3.00;99.90;;;;;;5093380;28;20244;-80
2022/11/27 07:37:52;;;;;;;7.20;4.97;;;2.80;99.90;;;;;;5093597;28;20186;-82
2022/11/27 07:40:18;;;;;;;8.10;5.20;;;2.50;99.90;;;;;;5095833;28;20656;-81
2022/11/27 07:42:44;;;;;;;7.70;4.77;;;2.20;99.90;;;;;;5095968;28;20186;-80
2022/11/27 07:45:10;;;;;;;7.90;5.10;;;1.70;99.90;;;;;;5095410;28;20205;-81
2022/11/27 07:47:36;;;;;;;6.93;4.80;;;1.50;99.90;;;;;;5093448;28;20174;-80
2022/11/27 07:50:02;;;;;;;8.80;4.60;;;1.20;99.90;;;;;;5094459;28;20185;-83
2022/11/27 07:52:28;;;;;;;7.23;5.20;;;1.20;99.90;;;;;;5093363;28;20197;-83
2022/11/27 07:54:53;;;;;;;11.13;6.47;;;1.10;99.90;;;;;;5093169;28;20214;-82
2022/11/27 07:57:19;;;;;;;7.10;5.27;;;0.90;99.90;;;;;;5093375;28;20181;-83
2022/11/27 07:59:44;;;;;;;11.60;7.33;;;0.80;99.90;;;;;;5094481;28;20181;-83
2022/11/27 08:02:13;;;;;;;9.03;6.10;;;0.80;99.90;;;;;;5093957;28;20201;-80
2022/11/27 08:04:39;;;;;;;9.10;5.30;;;0.70;99.90;;;;;;5095516;28;20176;-80
2022/11/27 08:07:04;;;;;;;6.70;4.83;;;0.80;99.90;;;;;;5096766;28;20223;-81
2022/11/27 08:09:30;;;;;;;8.00;5.20;;;0.80;99.90;;;;;;5095551;28;20168;-81
2022/11/27 08:11:56;;;;;;;7.93;5.23;;;0.70;99.90;;;;;;5095713;28;20221;-81
2022/11/27 08:14:21;;;;;;;10.20;6.90;;;0.70;99.90;;;;;;5096204;28;20708;-81
2022/11/27 08:16:47;;;;;;;10.13;6.53;;;0.70;99.90;;;;;;5095884;28;20193;-81
2022/11/27 08:19:12;;;;;;;11.77;7.63;;;0.80;99.90;;;;;;5097154;28;20192;-82
2022/11/27 08:21:38;;;;;;;11.17;7.47;;;1.00;99.90;;;;;;5095161;28;20172;-82
2022/11/27 08:24:04;;;;;;;11.77;7.73;;;1.10;99.90;;;;;;5096478;28;20264;-83
2022/11/27 08:26:30;;;;;;;12.10;7.77;;;1.20;99.90;;;;;;5095975;28;20193;-81
2022/11/27 08:28:56;;;;;;;10.53;6.80;;;1.30;99.90;;;;;;5096568;28;20200;-80
2022/11/27 08:31:22;;;;;;;11.03;7.93;;;1.50;99.90;;;;;;5095672;28;20192;-81
2022/11/27 08:33:48;;;;;;;10.73;7.53;;;1.60;99.90;;;;;;5096884;28;20297;-81
2022/11/27 08:36:14;;;;;;;11.33;7.60;;;1.70;99.90;;;;;;5096848;28;20242;-81
2022/11/27 08:38:40;;;;;;;10.80;7.13;;;1.80;99.90;;;;;;5095296;28;20236;-81
2022/11/27 08:41:07;;;;;;;9.10;6.37;;;1.90;99.90;;;;;;5095732;28;20234;-82
2022/11/27 08:43:33;;;;;;;9.53;6.47;;;2.00;99.90;;;;;;5095512;28;20245;-84
2022/11/27 08:46:01;;;;;;;10.43;6.80;;;2.10;99.90;;;;;;5095214;28;20290;-81
2022/11/27 08:48:27;;;;;;;10.77;7.47;;;2.20;99.90;;;;;;5094631;28;20563;-84
2022/11/27 08:50:53;;;;;;;12.73;8.57;;;2.30;99.90;;;;;;5094717;28;20177;-81
2022/11/27 08:53:19;;;;;;;13.03;8.37;;;2.40;99.90;;;;;;5094213;28;20197;-81
2022/11/27 08:55:44;;;;;;;13.07;8.20;;;2.40;99.90;;;;;;5095479;28;20210;-82
2022/11/27 08:58:10;;;;;;;12.17;7.80;;;2.50;99.90;;;;;;5090058;28;20180;-81
2022/11/27 09:00:37;;;;;;;11.00;7.73;;;2.70;99.90;;;;;;5084968;28;20179;-82
2022/11/27 09:03:03;;;;;;;10.70;7.73;;;2.80;99.90;;;;;;5085941;28;20266;-81
2022/11/27 09:05:29;;;;;;;13.50;8.23;;;2.90;99.90;;;;;;5094067;28;20190;-82
2022/11/27 09:07:55;;;;;;;13.00;8.57;;;2.90;99.90;;;;;;5094454;28;20201;-81
2022/11/27 09:10:21;;;;;;;11.13;8.67;;;3.00;99.90;;;;;;5094648;28;20274;-81
2022/11/27 09:12:48;;;;;;;9.90;7.20;;;3.20;99.90;;;;;;5095457;28;20230;-81
2022/11/27 09:15:14;;;;;;;10.47;6.80;;;3.30;99.90;;;;;;5094312;28;20190;-81
2022/11/27 09:17:40;;;;;;;14.43;7.67;;;3.20;99.90;;;;;;5086157;28;20508;-81
2022/11/27 09:20:06;;;;;;;49.43;13.10;;;3.30;99.90;;;;;;5093020;28;20168;-79
2022/11/27 09:22:33;;;;;;;58.60;20.57;;;4.00;99.90;;;;;;5091024;28;20211;-79
2022/11/27 09:24:59;;;;;;;41.37;19.40;;;7.50;99.90;;;;;;5093579;28;20181;-80
2022/11/27 09:27:24;;;;;;;40.77;23.23;;;9.10;99.90;;;;;;5080774;28;20552;-84
2022/11/27 09:29:50;;;;;;;11.03;7.50;;;9.80;99.90;;;;;;5074727;28;20165;-82
2022/11/27 09:32:16;;;;;;;12.30;7.53;;;8.20;99.90;;;;;;5071629;28;20240;-82
2022/11/27 09:34:41;;;;;;;12.10;7.37;;;7.00;99.90;;;;;;5071821;28;20177;-82
2022/11/27 09:37:08;;;;;;;9.83;7.30;;;6.10;99.90;;;;;;5072148;28;20212;-83
2022/11/27 09:39:33;;;;;;;12.70;8.23;;;5.40;99.90;;;;;;5072548;28;20263;-82
2022/11/27 09:42:01;;;;;;;10.77;7.80;;;5.10;99.90;;;;;;5072205;28;20274;-84
2022/11/27 09:44:38;;;;;;;12.77;7.77;;;5.00;99.90;;;;;;5089055;28;20190;-81
2022/11/27 09:47:31;;;;;;;15.20;8.83;;;5.20;99.90;;;;;;5082829;28;20195;-82
2022/11/27 09:50:07;;;;;;;12.67;8.90;;;5.20;99.90;;;;;;5071463;28;20180;-81
2022/11/27 09:52:42;;;;;;;13.57;8.53;;;5.30;99.90;;;;;;5071455;28;20209;-82
2022/11/27 09:55:23;;;;;;;12.70;7.30;;;5.30;99.90;;;;;;5072305;28;20194;-84
2022/11/27 09:57:56;;;;;;;11.63;7.73;;;5.50;99.90;;;;;;5076474;28;20161;-81
2022/11/27 10:00:22;;;;;;;11.67;7.70;;;5.70;99.90;;;;;;5092813;28;20173;-80
2022/11/27 10:02:47;;;;;;;10.27;8.00;;;5.70;99.90;;;;;;5092096;28;20178;-82
2022/11/27 10:05:22;;;;;;;10.33;7.67;;;5.60;99.90;;;;;;5093081;28;20202;-81
2022/11/27 10:08:17;;;;;;;11.90;8.57;;;5.70;99.90;;;;;;5092897;28;20161;-80
2022/11/27 10:11:01;;;;;;;12.87;8.23;;;5.80;99.90;;;;;;5078494;28;20266;-82
2022/11/27 10:13:35;;;;;;;12.57;7.97;;;6.00;99.90;;;;;;5093077;28;20202;-80
2022/11/27 10:16:22;;;;;;;12.67;8.13;;;6.10;99.90;;;;;;5091539;28;20194;-81
2022/11/27 10:18:56;;;;;;;12.30;8.33;;;6.10;99.90;;;;;;5089436;28;20175;-80
2022/11/27 10:21:37;;;;;;;12.30;8.33;;;6.20;99.90;;;;;;5091313;28;20175;-81
2022/11/27 10:24:35;;;;;;;11.47;7.80;;;6.20;99.90;;;;;;5084265;28;20170;-80
2022/11/27 10:27:08;;;;;;;12.33;8.00;;;6.20;99.90;;;;;;5091908;28;20198;-80
2022/11/27 10:29:47;;;;;;;12.73;8.60;;;6.30;99.90;;;;;;5093361;28;20262;-81
2022/11/27 10:32:22;;;;;;;11.87;7.90;;;6.40;99.90;;;;;;5096510;28;20206;-85
2022/11/27 10:35:02;;;;;;;12.70;8.17;;;6.60;99.90;;;;;;5095151;28;20261;-80
2022/11/27 10:38:05;;;;;;;14.83;8.63;;;6.60;99.90;;;;;;5096960;28;20187;-81
2022/11/27 10:40:36;;;;;;;11.87;7.40;;;6.70;99.90;;;;;;5053825;28;20180;-81
2022/11/27 10:43:17;;;;;;;12.33;7.67;;;6.60;99.90;;;;;;5089303;28;20225;-82
2022/11/27 10:46:08;;;;;;;10.30;8.03;;;6.60;99.90;;;;;;5094973;28;20191;-80
2022/11/27 10:48:34;;;;;;;11.93;8.20;;;6.60;99.90;;;;;;5096438;28;20182;-80
2022/11/27 10:51:00;;;;;;;12.27;7.60;;;6.60;99.90;;;;;;5095185;28;20342;-81
2022/11/27 10:53:34;;;;;;;19.20;11.47;;;6.60;99.90;;;;;;5095312;28;20200;-81
2022/11/27 10:56:15;;;;;;;16.00;9.10;;;6.60;99.90;;;;;;5095152;28;20183;-79
2022/11/27 10:59:00;;;;;;;10.33;7.70;;;6.60;99.90;;;;;;5095798;28;20225;-83
2022/11/27 11:01:28;;;;;;;10.33;7.63;;;6.70;99.90;;;;;;5095941;28;20175;-81
2022/11/27 11:04:07;;;;;;;16.63;9.00;;;6.70;99.90;;;;;;5094641;28;20182;-81
2022/11/27 11:06:45;;;;;;;14.13;9.50;;;6.80;99.90;;;;;;5096232;28;20212;-84
2022/11/27 11:09:13;;;;;;;15.00;8.80;;;6.90;99.90;;;;;;5094507;28;20175;-83
2022/11/27 11:11:39;;;;;;;17.70;9.80;;;7.00;99.90;;;;;;5094848;28;20171;-83
2022/11/27 11:14:24;;;;;;;18.43;9.70;;;7.00;99.90;;;;;;5095065;28;20172;-81
2022/11/27 11:16:51;;;;;;;15.43;9.67;;;7.10;99.90;;;;;;5096075;28;20197;-83
2022/11/27 11:19:31;;;;;;;12.00;7.27;;;7.20;99.90;;;;;;5095571;28;20244;-82
2022/11/27 11:22:10;;;;;;;19.43;15.97;;;7.30;99.90;;;;;;5095535;28;20207;-79
2022/11/27 11:24:40;;;;;;;16.27;10.97;;;7.30;99.90;;;;;;5095036;28;20175;-78
2022/11/27 11:27:20;;;;;;;8.67;5.03;;;7.50;99.90;;;;;;5095452;28;20199;-79
2022/11/27 11:29:45;;;;;;;8.67;5.60;;;8.20;99.90;;;;;;5094563;28;20174;-78
2022/11/27 11:32:20;;;;;;;6.10;4.50;;;8.70;99.90;;;;;;5095450;28;20194;-78
2022/11/27 11:35:07;;;;;;;6.23;4.00;;;9.10;99.90;;;;;;5094549;28;20169;-78
2022/11/27 11:37:37;;;;;;;4.20;3.17;;;9.20;99.90;;;;;;5094225;28;20334;-78
2022/11/27 11:40:19;;;;;;;3.90;2.73;;;8.90;99.90;;;;;;5095870;28;20176;-77
2022/11/27 11:43:06;;;;;;;4.10;3.20;;;8.50;99.90;;;;;;5094405;28;20169;-79
2022/11/27 11:45:33;;;;;;;16.37;13.73;;;8.40;99.90;;;;;;5093484;28;20191;-81
2022/11/27 11:48:20;;;;;;;52.80;21.87;;;8.60;99.90;;;;;;5093154;28;20175;-82
2022/11/27 11:51:21;;;;;;;35.07;15.27;;;8.80;99.90;;;;;;5094497;28;20262;-82
2022/11/27 11:54:00;;;;;;;15.20;7.53;;;10.90;99.90;;;;;;5091966;28;20218;-82
2022/11/27 11:56:30;;;;;;;5.87;5.27;;;11.00;99.90;;;;;;5092917;28;20259;-82
2022/11/27 11:58:59;;;;;;;4.67;3.77;;;10.50;99.90;;;;;;5092980;28;20183;-82
2022/11/27 12:01:27;;;;;;;5.70;3.93;;;9.90;99.90;;;;;;5093300;28;20175;-81
2022/11/27 12:04:09;;;;;;;5.83;3.70;;;9.70;99.90;;;;;;5091977;28;20177;-82
2022/11/27 12:06:53;;;;;;;4.00;2.83;;;9.90;99.90;;;;;;5085820;28;20192;-80
2022/11/27 12:09:53;;;;;;;6.33;4.90;;;9.70;99.90;;;;;;5072771;28;20211;-80
2022/11/27 12:12:52;;;;;;;14.97;12.93;;;9.90;99.90;;;;;;5072290;28;20200;-80
2022/11/27 12:16:08;;;;;;;5.00;3.40;;;10.10;99.90;;;;;;5072832;28;20192;-80
2022/11/27 12:19:15;;;;;;;4.40;3.00;;;10.80;99.90;;;;;;5034471;28;20174;-81
2022/11/27 12:21:55;;;;;;;5.57;2.67;;;11.20;99.90;;;;;;5072859;28;20543;-80
2022/11/27 12:25:00;;;;;;;4.43;2.50;;;11.50;99.90;;;;;;5072006;28;20165;-81
2022/11/27 12:27:50;;;;;;;4.87;2.87;;;11.90;99.90;;;;;;5069174;28;20184;-81
2022/11/27 12:30:22;;;;;;;5.50;4.33;;;12.10;99.90;;;;;;5072455;28;20236;-81
2022/11/27 12:32:48;;;;;;;4.00;2.60;;;12.00;99.90;;;;;;5072893;28;20208;-81
2022/11/27 12:37:59;;;;;;;2.53;2.10;;;11.60;99.90;;;;;;5070113;28;20208;-82
2022/11/27 12:41:01;;;;;;;4.37;1.97;;;10.80;99.90;;;;;;5072731;28;20181;-84
2022/11/27 12:43:34;;;;;;;4.20;2.20;;;10.20;99.90;;;;;;5075909;28;20729;-84
2022/11/27 12:46:15;;;;;;;5.00;2.40;;;9.60;99.90;;;;;;5090905;28;20200;-84
2022/11/27 12:48:53;;;;;;;1.63;1.53;;;9.20;99.90;;;;;;5082643;28;20178;-84
2022/11/27 12:51:25;;;;;;;2.67;1.90;;;8.90;99.90;;;;;;5062121;28;20173;-84
2022/11/27 12:54:00;;;;;;;3.43;1.50;;;8.60;99.90;;;;;;5085006;28;20262;-84
2022/11/27 12:56:42;;;;;;;2.77;1.90;;;8.30;99.90;;;;;;5068763;28;20223;-84
2022/11/27 12:59:35;;;;;;;2.27;1.90;;;8.20;99.90;;;;;;5086275;28;20179;-84
2022/11/27 13:02:22;;;;;;;5.07;2.30;;;8.10;99.90;;;;;;5086745;28;20176;-84
2022/11/27 13:05:00;;;;;;;4.47;2.20;;;8.10;99.90;;;;;;5068585;28;20200;-84
2022/11/27 13:07:50;;;;;;;3.40;2.20;;;8.00;99.90;;;;;;5086422;28;20264;-84
2022/11/27 13:10:40;;;;;;;2.40;2.10;;;7.90;99.90;;;;;;5068258;28;20266;-84
2022/11/27 13:13:30;;;;;;;3.50;1.93;;;7.90;99.90;;;;;;5068263;28;20238;-84
2022/11/27 13:16:08;;;;;;;3.60;1.97;;;7.90;99.90;;;;;;5068207;28;20233;-84
2022/11/27 13:18:40;;;;;;;2.80;2.00;;;7.90;99.90;;;;;;5068736;28;20180;-84